sensor_id;sensor_type;location;lat;lon;timestamp;temperature;humidity
9223;DHT22;7557;51.698;3.942;2023-11-19T00:01:57;14.20;99.90
9223;DHT22;7557;51.698;3.942;2023-11-19T00:04:24;14.20;99.90
9223;DHT22;7557;51.698;3.942;2023-11-19T00:06:53;14.20;99.90
9223;DHT22;7557;51.698;3.942;2023-11-19T00:09:20;14.20;99.90
9223;DHT22;7557;51.698;3.942;2023-11-19T00:11:48;14.20;99.90
9223;DHT22;7557;51.698;3.942;2023-11-19T00:14:15;14.20;99.90
9223;DHT22;7557;51.698;3.942;2023-11-19T00:16:42;14.20;99.90
9223;DHT22;7557;51.698;3.942;2023-11-19T00:19:10;14.10;99.90
9223;DHT22;7557;51.698;3.942;2023-11-19T00:21:37;14.10;99.90
9223;DHT22;7557;51.698;3.942;2023-11-19T00:24:06;14.10;99.90
9223;DHT22;7557;51.698;3.942;2023-11-19T00:26:34;14.10;99.90
9223;DHT22;7557;51.698;3.942;2023-11-19T00:29:01;14.10;99.90
9223;DHT22;7557;51.698;3.942;2023-11-19T00:31:28;14.10;99.90
9223;DHT22;7557;51.698;3.942;2023-11-19T00:33:55;14.10;99.90
9223;DHT22;7557;51.698;3.942;2023-11-19T00:36:22;14.10;99.90
9223;DHT22;7557;51.698;3.942;2023-11-19T00:38:50;14.10;99.90
9223;DHT22;7557;51.698;3.942;2023-11-19T00:41:20;14.10;99.90
9223;DHT22;7557;51.698;3.942;2023-11-19T00:47:10;14.10;99.90
9223;DHT22;7557;51.698;3.942;2023-11-19T00:49:37;14.10;99.90
9223;DHT22;7557;51.698;3.942;2023-11-19T00:52:05;14.10;99.90
9223;DHT22;7557;51.698;3.942;2023-11-19T00:54:32;14.10;99.90
9223;DHT22;7557;51.698;3.942;2023-11-19T00:57:00;14.10;99.90
9223;DHT22;7557;51.698;3.942;2023-11-19T00:59:28;14.00;99.90
9223;DHT22;7557;51.698;3.942;2023-11-19T01:01:55;14.10;99.90
9223;DHT22;7557;51.698;3.942;2023-11-19T01:04:22;14.00;99.90
9223;DHT22;7557;51.698;3.942;2023-11-19T01:06:50;14.00;99.90
9223;DHT22;7557;51.698;3.942;2023-11-19T01:09:17;13.90;99.90
9223;DHT22;7557;51.698;3.942;2023-11-19T01:11:45;13.90;99.90
9223;DHT22;7557;51.698;3.942;2023-11-19T01:14:13;13.90;99.90
9223;DHT22;7557;51.698;3.942;2023-11-19T01:16:40;13.80;99.90
9223;DHT22;7557;51.698;3.942;2023-11-19T01:19:08;13.80;99.90
9223;DHT22;7557;51.698;3.942;2023-11-19T01:21:36;13.70;99.90
9223;DHT22;7557;51.698;3.942;2023-11-19T01:24:04;13.70;99.90
9223;DHT22;7557;51.698;3.942;2023-11-19T01:26:35;13.70;99.90
9223;DHT22;7557;51.698;3.942;2023-11-19T01:29:02;13.70;99.90
9223;DHT22;7557;51.698;3.942;2023-11-19T01:31:31;13.60;99.90
9223;DHT22;7557;51.698;3.942;2023-11-19T01:33:59;13.60;99.90
9223;DHT22;7557;51.698;3.942;2023-11-19T01:36:26;13.60;99.90
9223;DHT22;7557;51.698;3.942;2023-11-19T01:38:54;13.50;99.90
9223;DHT22;7557;51.698;3.942;2023-11-19T01:41:21;13.50;99.90
9223;DHT22;7557;51.698;3.942;2023-11-19T01:43:48;13.50;99.90
9223;DHT22;7557;51.698;3.942;2023-11-19T01:46:15;13.50;99.90
9223;DHT22;7557;51.698;3.942;2023-11-19T01:48:46;13.40;99.90
9223;DHT22;7557;51.698;3.942;2023-11-19T01:51:14;13.40;99.90
9223;DHT22;7557;51.698;3.942;2023-11-19T01:53:43;13.40;99.90
9223;DHT22;7557;51.698;3.942;2023-11-19T01:56:14;13.40;99.90
9223;DHT22;7557;51.698;3.942;2023-11-19T01:58:42;13.40;99.90
9223;DHT22;7557;51.698;3.942;2023-11-19T02:01:10;13.30;99.90
9223;DHT22;7557;51.698;3.942;2023-11-19T02:03:38;13.30;99.90
9223;DHT22;7557;51.698;3.942;2023-11-19T02:06:08;13.30;99.90
9223;DHT22;7557;51.698;3.942;2023-11-19T02:08:36;13.30;99.90
9223;DHT22;7557;51.698;3.942;2023-11-19T02:11:05;13.30;99.90
9223;DHT22;7557;51.698;3.942;2023-11-19T02:13:32;13.30;99.90
9223;DHT22;7557;51.698;3.942;2023-11-19T02:16:02;13.30;99.90
9223;DHT22;7557;51.698;3.942;2023-11-19T02:18:29;13.20;99.90
9223;DHT22;7557;51.698;3.942;2023-11-19T02:20:57;13.20;99.90
9223;DHT22;7557;51.698;3.942;2023-11-19T02:23:27;13.20;99.90
9223;DHT22;7557;51.698;3.942;2023-11-19T02:26:02;13.20;99.90
9223;DHT22;7557;51.698;3.942;2023-11-19T02:28:33;13.20;99.90
9223;DHT22;7557;51.698;3.942;2023-11-19T02:31:00;13.10;99.90
9223;DHT22;7557;51.698;3.942;2023-11-19T02:33:27;13.10;99.90
9223;DHT22;7557;51.698;3.942;2023-11-19T02:35:55;13.10;99.90
9223;DHT22;7557;51.698;3.942;2023-11-19T02:38:22;13.00;99.90
9223;DHT22;7557;51.698;3.942;2023-11-19T02:40:50;13.00;99.90
9223;DHT22;7557;51.698;3.942;2023-11-19T02:43:17;13.00;99.90
9223;DHT22;7557;51.698;3.942;2023-11-19T02:45:46;13.00;99.90
9223;DHT22;7557;51.698;3.942;2023-11-19T02:48:13;13.00;99.90
9223;DHT22;7557;51.698;3.942;2023-11-19T02:50:41;13.00;99.90
9223;DHT22;7557;51.698;3.942;2023-11-19T02:53:09;13.10;99.90
9223;DHT22;7557;51.698;3.942;2023-11-19T02:55:36;13.00;99.90
9223;DHT22;7557;51.698;3.942;2023-11-19T02:58:06;13.00;99.90
9223;DHT22;7557;51.698;3.942;2023-11-19T03:00:46;13.10;99.90
9223;DHT22;7557;51.698;3.942;2023-11-19T03:03:20;13.00;99.90
9223;DHT22;7557;51.698;3.942;2023-11-19T03:05:48;13.00;99.90
9223;DHT22;7557;51.698;3.942;2023-11-19T03:08:15;13.00;99.90
9223;DHT22;7557;51.698;3.942;2023-11-19T03:10:43;13.00;99.90
9223;DHT22;7557;51.698;3.942;2023-11-19T03:13:12;13.00;99.90
9223;DHT22;7557;51.698;3.942;2023-11-19T03:15:40;13.00;99.90
9223;DHT22;7557;51.698;3.942;2023-11-19T03:18:08;13.00;99.90
9223;DHT22;7557;51.698;3.942;2023-11-19T03:20:36;13.00;99.90
9223;DHT22;7557;51.698;3.942;2023-11-19T03:23:03;12.90;99.90
9223;DHT22;7557;51.698;3.942;2023-11-19T03:25:32;13.00;99.90
9223;DHT22;7557;51.698;3.942;2023-11-19T03:28:00;12.90;99.90
9223;DHT22;7557;51.698;3.942;2023-11-19T03:30:28;12.90;99.90
9223;DHT22;7557;51.698;3.942;2023-11-19T03:32:56;12.90;99.90
9223;DHT22;7557;51.698;3.942;2023-11-19T03:35:28;12.90;99.90
9223;DHT22;7557;51.698;3.942;2023-11-19T03:37:56;12.90;99.90
9223;DHT22;7557;51.698;3.942;2023-11-19T03:40:23;12.90;99.90
9223;DHT22;7557;51.698;3.942;2023-11-19T03:42:52;12.90;99.90
9223;DHT22;7557;51.698;3.942;2023-11-19T03:45:19;12.90;99.90
9223;DHT22;7557;51.698;3.942;2023-11-19T03:47:49;12.90;99.90
9223;DHT22;7557;51.698;3.942;2023-11-19T03:50:17;12.90;99.90
9223;DHT22;7557;51.698;3.942;2023-11-19T03:52:47;12.90;99.90
9223;DHT22;7557;51.698;3.942;2023-11-19T03:55:15;12.90;99.90
9223;DHT22;7557;51.698;3.942;2023-11-19T03:57:44;12.90;99.90
9223;DHT22;7557;51.698;3.942;2023-11-19T04:00:13;12.90;99.90
9223;DHT22;7557;51.698;3.942;2023-11-19T04:02:41;12.90;99.90
9223;DHT22;7557;51.698;3.942;2023-11-19T04:05:08;12.90;99.90
9223;DHT22;7557;51.698;3.942;2023-11-19T04:07:37;12.90;99.90
9223;DHT22;7557;51.698;3.942;2023-11-19T04:10:07;12.90;99.90
9223;DHT22;7557;51.698;3.942;2023-11-19T04:12:36;12.90;99.90
9223;DHT22;7557;51.698;3.942;2023-11-19T04:15:04;12.90;99.90
9223;DHT22;7557;51.698;3.942;2023-11-19T04:17:31;12.90;99.90
9223;DHT22;7557;51.698;3.942;2023-11-19T04:19:59;12.90;99.90
9223;DHT22;7557;51.698;3.942;2023-11-19T04:22:28;12.90;99.90
9223;DHT22;7557;51.698;3.942;2023-11-19T04:24:56;12.90;99.90
9223;DHT22;7557;51.698;3.942;2023-11-19T04:27:25;12.90;99.90
9223;DHT22;7557;51.698;3.942;2023-11-19T04:29:52;12.90;99.90
9223;DHT22;7557;51.698;3.942;2023-11-19T04:32:20;12.90;99.90
9223;DHT22;7557;51.698;3.942;2023-11-19T04:34:48;12.90;99.90
9223;DHT22;7557;51.698;3.942;2023-11-19T04:37:15;12.90;99.90
9223;DHT22;7557;51.698;3.942;2023-11-19T04:39:44;12.90;99.90
9223;DHT22;7557;51.698;3.942;2023-11-19T04:42:12;12.90;99.90
9223;DHT22;7557;51.698;3.942;2023-11-19T04:44:47;12.90;99.90
9223;DHT22;7557;51.698;3.942;2023-11-19T04:47:15;12.90;99.90
9223;DHT22;7557;51.698;3.942;2023-11-19T04:49:42;12.90;99.90
9223;DHT22;7557;51.698;3.942;2023-11-19T04:52:10;12.90;99.90
9223;DHT22;7557;51.698;3.942;2023-11-19T04:54:41;12.90;99.90
9223;DHT22;7557;51.698;3.942;2023-11-19T04:57:11;12.90;99.90
9223;DHT22;7557;51.698;3.942;2023-11-19T04:59:38;12.90;99.90
9223;DHT22;7557;51.698;3.942;2023-11-19T05:02:08;12.80;99.90
9223;DHT22;7557;51.698;3.942;2023-11-19T05:04:36;12.80;99.90
9223;DHT22;7557;51.698;3.942;2023-11-19T05:07:04;12.80;99.90
9223;DHT22;7557;51.698;3.942;2023-11-19T05:09:32;12.80;99.90
9223;DHT22;7557;51.698;3.942;2023-11-19T05:11:59;12.80;99.90
9223;DHT22;7557;51.698;3.942;2023-11-19T05:14:27;12.80;99.90
9223;DHT22;7557;51.698;3.942;2023-11-19T05:16:55;12.80;99.90
9223;DHT22;7557;51.698;3.942;2023-11-19T05:19:33;12.70;99.90
9223;DHT22;7557;51.698;3.942;2023-11-19T05:22:01;12.80;99.90
9223;DHT22;7557;51.698;3.942;2023-11-19T05:24:31;12.80;99.90
9223;DHT22;7557;51.698;3.942;2023-11-19T05:26:59;12.80;99.90
9223;DHT22;7557;51.698;3.942;2023-11-19T05:29:27;12.70;99.90
9223;DHT22;7557;51.698;3.942;2023-11-19T05:31:55;12.80;99.90
9223;DHT22;7557;51.698;3.942;2023-11-19T05:34:27;12.80;99.90
9223;DHT22;7557;51.698;3.942;2023-11-19T05:36:55;12.80;99.90
9223;DHT22;7557;51.698;3.942;2023-11-19T05:39:23;12.80;99.90
9223;DHT22;7557;51.698;3.942;2023-11-19T05:41:51;12.80;99.90
9223;DHT22;7557;51.698;3.942;2023-11-19T05:44:26;12.80;99.90
9223;DHT22;7557;51.698;3.942;2023-11-19T05:46:53;12.80;99.90
9223;DHT22;7557;51.698;3.942;2023-11-19T05:49:21;12.80;99.90
9223;DHT22;7557;51.698;3.942;2023-11-19T05:51:59;12.80;99.90
9223;DHT22;7557;51.698;3.942;2023-11-19T05:54:29;12.80;99.90
9223;DHT22;7557;51.698;3.942;2023-11-19T05:56:57;12.80;99.90
9223;DHT22;7557;51.698;3.942;2023-11-19T05:59:24;12.80;99.90
9223;DHT22;7557;51.698;3.942;2023-11-19T06:01:52;12.80;99.90
9223;DHT22;7557;51.698;3.942;2023-11-19T06:04:20;12.70;99.90
9223;DHT22;7557;51.698;3.942;2023-11-19T06:06:52;12.70;99.90
9223;DHT22;7557;51.698;3.942;2023-11-19T06:09:21;12.80;99.90
9223;DHT22;7557;51.698;3.942;2023-11-19T06:11:49;12.80;99.90
9223;DHT22;7557;51.698;3.942;2023-11-19T06:14:16;12.80;99.90
9223;DHT22;7557;51.698;3.942;2023-11-19T06:16:47;12.80;99.90
9223;DHT22;7557;51.698;3.942;2023-11-19T06:19:14;12.80;99.90
9223;DHT22;7557;51.698;3.942;2023-11-19T06:21:44;12.80;99.90
9223;DHT22;7557;51.698;3.942;2023-11-19T06:24:13;12.80;99.90
9223;DHT22;7557;51.698;3.942;2023-11-19T06:26:41;12.80;99.90
9223;DHT22;7557;51.698;3.942;2023-11-19T06:29:09;12.80;99.90
9223;DHT22;7557;51.698;3.942;2023-11-19T06:31:36;12.80;99.90
9223;DHT22;7557;51.698;3.942;2023-11-19T06:34:04;12.80;99.90
9223;DHT22;7557;51.698;3.942;2023-11-19T06:36:32;12.80;99.90
9223;DHT22;7557;51.698;3.942;2023-11-19T06:38:59;12.70;99.90
9223;DHT22;7557;51.698;3.942;2023-11-19T06:41:28;12.70;99.90
9223;DHT22;7557;51.698;3.942;2023-11-19T06:43:56;12.70;99.90
9223;DHT22;7557;51.698;3.942;2023-11-19T06:46:24;12.70;99.90
9223;DHT22;7557;51.698;3.942;2023-11-19T06:48:51;12.70;99.90
9223;DHT22;7557;51.698;3.942;2023-11-19T06:51:19;12.70;99.90
9223;DHT22;7557;51.698;3.942;2023-11-19T06:53:46;12.70;99.90
9223;DHT22;7557;51.698;3.942;2023-11-19T06:56:20;12.70;99.90
9223;DHT22;7557;51.698;3.942;2023-11-19T06:58:50;12.80;99.90
9223;DHT22;7557;51.698;3.942;2023-11-19T07:01:18;12.80;99.90
9223;DHT22;7557;51.698;3.942;2023-11-19T07:03:45;12.80;99.90
9223;DHT22;7557;51.698;3.942;2023-11-19T07:06:13;12.90;99.90
9223;DHT22;7557;51.698;3.942;2023-11-19T07:08:41;12.90;99.90
9223;DHT22;7557;51.698;3.942;2023-11-19T07:11:10;12.90;99.90
9223;DHT22;7557;51.698;3.942;2023-11-19T07:13:40;12.90;99.90
9223;DHT22;7557;51.698;3.942;2023-11-19T07:16:10;13.00;99.90
9223;DHT22;7557;51.698;3.942;2023-11-19T07:18:37;13.00;99.90
9223;DHT22;7557;51.698;3.942;2023-11-19T07:21:05;13.00;99.90
9223;DHT22;7557;51.698;3.942;2023-11-19T07:23:37;13.00;99.90
9223;DHT22;7557;51.698;3.942;2023-11-19T07:26:06;13.10;99.90
9223;DHT22;7557;51.698;3.942;2023-11-19T07:28:35;13.10;99.90
9223;DHT22;7557;51.698;3.942;2023-11-19T07:31:03;13.20;99.90
9223;DHT22;7557;51.698;3.942;2023-11-19T07:33:32;13.20;99.90
9223;DHT22;7557;51.698;3.942;2023-11-19T07:36:00;13.10;99.90
9223;DHT22;7557;51.698;3.942;2023-11-19T07:38:27;13.10;99.90
9223;DHT22;7557;51.698;3.942;2023-11-19T07:40:55;13.10;99.90
9223;DHT22;7557;51.698;3.942;2023-11-19T07:43:22;13.00;99.90
9223;DHT22;7557;51.698;3.942;2023-11-19T07:45:53;13.00;99.90
9223;DHT22;7557;51.698;3.942;2023-11-19T07:48:20;13.00;99.90
9223;DHT22;7557;51.698;3.942;2023-11-19T07:50:51;13.00;99.90
9223;DHT22;7557;51.698;3.942;2023-11-19T07:53:19;13.00;99.90
9223;DHT22;7557;51.698;3.942;2023-11-19T07:55:47;13.00;99.90
9223;DHT22;7557;51.698;3.942;2023-11-19T07:58:14;13.00;99.90
9223;DHT22;7557;51.698;3.942;2023-11-19T08:00:42;13.00;99.90
9223;DHT22;7557;51.698;3.942;2023-11-19T08:03:11;13.00;99.90
9223;DHT22;7557;51.698;3.942;2023-11-19T08:05:38;12.90;99.90
9223;DHT22;7557;51.698;3.942;2023-11-19T08:08:07;12.90;99.90
9223;DHT22;7557;51.698;3.942;2023-11-19T08:10:35;12.90;99.90
9223;DHT22;7557;51.698;3.942;2023-11-19T08:13:02;12.90;99.90
9223;DHT22;7557;51.698;3.942;2023-11-19T08:15:30;12.80;99.90
9223;DHT22;7557;51.698;3.942;2023-11-19T08:17:57;12.80;99.90
9223;DHT22;7557;51.698;3.942;2023-11-19T08:20:24;12.80;99.90
9223;DHT22;7557;51.698;3.942;2023-11-19T08:22:52;12.80;99.90
9223;DHT22;7557;51.698;3.942;2023-11-19T08:25:21;12.90;99.90
9223;DHT22;7557;51.698;3.942;2023-11-19T08:27:48;12.90;99.90
9223;DHT22;7557;51.698;3.942;2023-11-19T08:30:16;13.00;99.90
9223;DHT22;7557;51.698;3.942;2023-11-19T08:32:43;13.10;99.90
9223;DHT22;7557;51.698;3.942;2023-11-19T08:35:11;13.20;99.90
9223;DHT22;7557;51.698;3.942;2023-11-19T08:37:38;13.20;99.90
9223;DHT22;7557;51.698;3.942;2023-11-19T08:40:07;13.30;99.90
9223;DHT22;7557;51.698;3.942;2023-11-19T08:42:36;13.30;99.90
9223;DHT22;7557;51.698;3.942;2023-11-19T08:45:05;13.30;99.90
9223;DHT22;7557;51.698;3.942;2023-11-19T08:47:33;13.30;99.90
9223;DHT22;7557;51.698;3.942;2023-11-19T08:50:01;13.30;99.90
9223;DHT22;7557;51.698;3.942;2023-11-19T08:52:29;13.30;99.90
9223;DHT22;7557;51.698;3.942;2023-11-19T08:54:57;13.40;99.90
9223;DHT22;7557;51.698;3.942;2023-11-19T08:57:24;13.40;99.90
9223;DHT22;7557;51.698;3.942;2023-11-19T08:59:53;13.40;99.90
9223;DHT22;7557;51.698;3.942;2023-11-19T09:02:21;13.50;99.90
9223;DHT22;7557;51.698;3.942;2023-11-19T09:04:48;13.50;99.90
9223;DHT22;7557;51.698;3.942;2023-11-19T09:07:16;13.60;99.90
9223;DHT22;7557;51.698;3.942;2023-11-19T09:09:44;13.60;99.90
9223;DHT22;7557;51.698;3.942;2023-11-19T09:12:11;13.60;99.90
9223;DHT22;7557;51.698;3.942;2023-11-19T09:14:45;13.70;99.90
9223;DHT22;7557;51.698;3.942;2023-11-19T09:17:19;13.70;99.90
9223;DHT22;7557;51.698;3.942;2023-11-19T09:19:46;13.80;99.90
9223;DHT22;7557;51.698;3.942;2023-11-19T09:22:14;13.90;99.90
9223;DHT22;7557;51.698;3.942;2023-11-19T09:24:42;14.00;99.90
9223;DHT22;7557;51.698;3.942;2023-11-19T09:27:10;14.10;99.90
9223;DHT22;7557;51.698;3.942;2023-11-19T09:29:38;14.10;99.90
9223;DHT22;7557;51.698;3.942;2023-11-19T09:32:09;14.10;99.90
9223;DHT22;7557;51.698;3.942;2023-11-19T09:34:38;14.10;99.90
9223;DHT22;7557;51.698;3.942;2023-11-19T09:37:06;14.10;99.90
9223;DHT22;7557;51.698;3.942;2023-11-19T09:39:33;14.10;99.90
9223;DHT22;7557;51.698;3.942;2023-11-19T09:42:01;14.20;99.90
9223;DHT22;7557;51.698;3.942;2023-11-19T09:44:28;14.20;99.90
9223;DHT22;7557;51.698;3.942;2023-11-19T09:46:56;14.30;99.90
9223;DHT22;7557;51.698;3.942;2023-11-19T09:49:26;14.30;99.90
9223;DHT22;7557;51.698;3.942;2023-11-19T09:51:56;14.30;99.90
9223;DHT22;7557;51.698;3.942;2023-11-19T09:54:24;14.30;99.90
9223;DHT22;7557;51.698;3.942;2023-11-19T09:56:52;14.40;99.90
9223;DHT22;7557;51.698;3.942;2023-11-19T09:59:20;14.40;99.90
9223;DHT22;7557;51.698;3.942;2023-11-19T10:01:48;14.50;99.90
9223;DHT22;7557;51.698;3.942;2023-11-19T10:04:16;14.60;99.90
9223;DHT22;7557;51.698;3.942;2023-11-19T10:06:43;14.60;99.90
9223;DHT22;7557;51.698;3.942;2023-11-19T10:09:13;14.60;99.90
9223;DHT22;7557;51.698;3.942;2023-11-19T10:11:42;14.50;99.90
9223;DHT22;7557;51.698;3.942;2023-11-19T10:14:09;14.40;99.90
9223;DHT22;7557;51.698;3.942;2023-11-19T10:16:39;14.30;99.90
9223;DHT22;7557;51.698;3.942;2023-11-19T10:19:13;14.30;99.90
9223;DHT22;7557;51.698;3.942;2023-11-19T10:21:46;14.20;99.90
9223;DHT22;7557;51.698;3.942;2023-11-19T10:24:15;14.20;99.90
9223;DHT22;7557;51.698;3.942;2023-11-19T10:26:43;14.10;99.90
9223;DHT22;7557;51.698;3.942;2023-11-19T10:29:13;14.10;99.90
9223;DHT22;7557;51.698;3.942;2023-11-19T10:31:39;14.10;99.90
9223;DHT22;7557;51.698;3.942;2023-11-19T10:34:24;14.10;99.90
9223;DHT22;7557;51.698;3.942;2023-11-19T10:36:52;14.10;99.90
9223;DHT22;7557;51.698;3.942;2023-11-19T10:39:21;14.00;99.90
9223;DHT22;7557;51.698;3.942;2023-11-19T10:41:50;14.00;99.90
9223;DHT22;7557;51.698;3.942;2023-11-19T10:44:33;14.00;99.90
9223;DHT22;7557;51.698;3.942;2023-11-19T10:47:01;14.10;99.90
9223;DHT22;7557;51.698;3.942;2023-11-19T10:49:32;14.10;99.90
9223;DHT22;7557;51.698;3.942;2023-11-19T10:52:01;14.20;99.90
9223;DHT22;7557;51.698;3.942;2023-11-19T10:54:32;14.30;99.90
9223;DHT22;7557;51.698;3.942;2023-11-19T10:57:00;14.40;99.90
9223;DHT22;7557;51.698;3.942;2023-11-19T10:59:30;14.40;99.90
9223;DHT22;7557;51.698;3.942;2023-11-19T11:02:03;14.50;99.90
9223;DHT22;7557;51.698;3.942;2023-11-19T11:04:34;14.50;99.90
9223;DHT22;7557;51.698;3.942;2023-11-19T11:07:08;14.50;99.90
9223;DHT22;7557;51.698;3.942;2023-11-19T11:09:38;14.50;99.90
9223;DHT22;7557;51.698;3.942;2023-11-19T11:12:07;14.40;99.90
9223;DHT22;7557;51.698;3.942;2023-11-19T11:14:39;14.40;99.90
9223;DHT22;7557;51.698;3.942;2023-11-19T11:17:11;14.40;99.90
9223;DHT22;7557;51.698;3.942;2023-11-19T11:19:46;14.50;99.90
9223;DHT22;7557;51.698;3.942;2023-11-19T11:22:16;14.50;99.90
9223;DHT22;7557;51.698;3.942;2023-11-19T11:25:08;14.60;99.90
9223;DHT22;7557;51.698;3.942;2023-11-19T11:30:51;14.70;99.90
9223;DHT22;7557;51.698;3.942;2023-11-19T11:33:34;14.70;99.90
9223;DHT22;7557;51.698;3.942;2023-11-19T11:36:13;14.70;99.90
9223;DHT22;7557;51.698;3.942;2023-11-19T11:38:42;14.70;99.90
9223;DHT22;7557;51.698;3.942;2023-11-19T11:41:19;14.70;99.90
9223;DHT22;7557;51.698;3.942;2023-11-19T11:43:48;14.80;99.90
9223;DHT22;7557;51.698;3.942;2023-11-19T11:49:26;14.90;99.90
9223;DHT22;7557;51.698;3.942;2023-11-19T11:52:02;14.90;99.90
9223;DHT22;7557;51.698;3.942;2023-11-19T11:54:34;14.90;99.90
9223;DHT22;7557;51.698;3.942;2023-11-19T11:57:07;15.00;99.90
9223;DHT22;7557;51.698;3.942;2023-11-19T11:59:45;15.00;99.90
9223;DHT22;7557;51.698;3.942;2023-11-19T12:02:14;15.10;99.90
9223;DHT22;7557;51.698;3.942;2023-11-19T12:04:47;15.00;99.90
9223;DHT22;7557;51.698;3.942;2023-11-19T12:07:18;15.00;99.90
9223;DHT22;7557;51.698;3.942;2023-11-19T12:09:51;15.00;99.90
9223;DHT22;7557;51.698;3.942;2023-11-19T12:12:27;14.90;99.90
9223;DHT22;7557;51.698;3.942;2023-11-19T12:15:03;14.80;99.90
9223;DHT22;7557;51.698;3.942;2023-11-19T12:17:50;14.70;99.90
9223;DHT22;7557;51.698;3.942;2023-11-19T12:20:19;14.70;99.90
9223;DHT22;7557;51.698;3.942;2023-11-19T12:22:48;14.60;99.90
9223;DHT22;7557;51.698;3.942;2023-11-19T12:25:16;14.60;99.90
9223;DHT22;7557;51.698;3.942;2023-11-19T12:27:48;14.60;99.90
9223;DHT22;7557;51.698;3.942;2023-11-19T12:30:17;14.50;99.90
9223;DHT22;7557;51.698;3.942;2023-11-19T12:32:46;14.50;99.90
9223;DHT22;7557;51.698;3.942;2023-11-19T12:35:15;14.50;99.90
9223;DHT22;7557;51.698;3.942;2023-11-19T12:37:43;14.60;99.90
9223;DHT22;7557;51.698;3.942;2023-11-19T12:40:17;14.60;99.90
9223;DHT22;7557;51.698;3.942;2023-11-19T12:42:47;14.60;99.90
9223;DHT22;7557;51.698;3.942;2023-11-19T12:45:15;14.50;99.90
9223;DHT22;7557;51.698;3.942;2023-11-19T12:47:43;14.50;99.90
9223;DHT22;7557;51.698;3.942;2023-11-19T12:50:13;14.50;99.90
9223;DHT22;7557;51.698;3.942;2023-11-19T12:52:40;14.50;99.90
9223;DHT22;7557;51.698;3.942;2023-11-19T12:55:26;14.50;99.90
9223;DHT22;7557;51.698;3.942;2023-11-19T12:57:55;14.40;99.90
9223;DHT22;7557;51.698;3.942;2023-11-19T13:00:26;14.40;99.90
9223;DHT22;7557;51.698;3.942;2023-11-19T13:02:54;14.40;99.90
9223;DHT22;7557;51.698;3.942;2023-11-19T13:05:27;14.50;99.90
9223;DHT22;7557;51.698;3.942;2023-11-19T13:08:02;14.60;99.90
9223;DHT22;7557;51.698;3.942;2023-11-19T13:10:31;14.60;99.90
9223;DHT22;7557;51.698;3.942;2023-11-19T13:13:04;14.60;99.90
9223;DHT22;7557;51.698;3.942;2023-11-19T13:15:32;14.60;99.90
9223;DHT22;7557;51.698;3.942;2023-11-19T13:18:00;14.50;99.90
9223;DHT22;7557;51.698;3.942;2023-11-19T13:20:27;14.50;99.90
9223;DHT22;7557;51.698;3.942;2023-11-19T13:22:59;14.50;99.90
9223;DHT22;7557;51.698;3.942;2023-11-19T13:25:28;14.50;99.90
9223;DHT22;7557;51.698;3.942;2023-11-19T13:27:56;14.50;99.90
9223;DHT22;7557;51.698;3.942;2023-11-19T13:30:26;14.50;99.90
9223;DHT22;7557;51.698;3.942;2023-11-19T13:32:53;14.50;99.90
9223;DHT22;7557;51.698;3.942;2023-11-19T13:35:22;14.60;99.90
9223;DHT22;7557;51.698;3.942;2023-11-19T13:37:51;14.60;99.90
9223;DHT22;7557;51.698;3.942;2023-11-19T13:40:19;14.70;99.90
9223;DHT22;7557;51.698;3.942;2023-11-19T13:42:48;14.60;99.90
9223;DHT22;7557;51.698;3.942;2023-11-19T13:45:16;14.60;99.90
9223;DHT22;7557;51.698;3.942;2023-11-19T13:47:47;14.60;99.90
9223;DHT22;7557;51.698;3.942;2023-11-19T13:50:16;14.70;99.90
9223;DHT22;7557;51.698;3.942;2023-11-19T13:52:45;14.60;99.90
9223;DHT22;7557;51.698;3.942;2023-11-19T13:55:13;14.70;99.90
9223;DHT22;7557;51.698;3.942;2023-11-19T13:57:42;14.60;99.90
9223;DHT22;7557;51.698;3.942;2023-11-19T14:00:14;14.60;99.90
9223;DHT22;7557;51.698;3.942;2023-11-19T14:02:42;14.70;99.90
9223;DHT22;7557;51.698;3.942;2023-11-19T14:05:12;14.60;99.90
9223;DHT22;7557;51.698;3.942;2023-11-19T14:07:40;14.60;99.90
9223;DHT22;7557;51.698;3.942;2023-11-19T14:10:09;14.60;99.90
9223;DHT22;7557;51.698;3.942;2023-11-19T14:12:37;14.50;99.90
9223;DHT22;7557;51.698;3.942;2023-11-19T14:15:05;14.50;99.90
9223;DHT22;7557;51.698;3.942;2023-11-19T14:17:34;14.40;99.90
9223;DHT22;7557;51.698;3.942;2023-11-19T14:20:03;14.30;99.90
9223;DHT22;7557;51.698;3.942;2023-11-19T14:22:40;14.20;99.90
9223;DHT22;7557;51.698;3.942;2023-11-19T14:25:09;14.20;99.90
9223;DHT22;7557;51.698;3.942;2023-11-19T14:27:37;14.10;99.90
9223;DHT22;7557;51.698;3.942;2023-11-19T14:30:06;14.00;99.90
9223;DHT22;7557;51.698;3.942;2023-11-19T14:32:33;14.00;99.90
9223;DHT22;7557;51.698;3.942;2023-11-19T14:35:02;13.90;99.90
9223;DHT22;7557;51.698;3.942;2023-11-19T14:37:30;13.90;99.90
9223;DHT22;7557;51.698;3.942;2023-11-19T14:40:00;13.80;99.90
9223;DHT22;7557;51.698;3.942;2023-11-19T14:42:30;13.80;99.90
9223;DHT22;7557;51.698;3.942;2023-11-19T14:44:58;13.70;99.90
9223;DHT22;7557;51.698;3.942;2023-11-19T14:47:26;13.70;99.90
9223;DHT22;7557;51.698;3.942;2023-11-19T14:49:54;13.80;99.90
9223;DHT22;7557;51.698;3.942;2023-11-19T14:52:21;13.80;99.90
9223;DHT22;7557;51.698;3.942;2023-11-19T14:54:49;13.80;99.90
9223;DHT22;7557;51.698;3.942;2023-11-19T14:57:21;13.80;99.90
9223;DHT22;7557;51.698;3.942;2023-11-19T14:59:49;13.70;99.90
9223;DHT22;7557;51.698;3.942;2023-11-19T15:02:17;13.70;99.90
9223;DHT22;7557;51.698;3.942;2023-11-19T15:04:46;13.70;99.90
9223;DHT22;7557;51.698;3.942;2023-11-19T15:07:13;13.60;99.90
9223;DHT22;7557;51.698;3.942;2023-11-19T15:09:43;13.60;99.90
9223;DHT22;7557;51.698;3.942;2023-11-19T15:12:11;13.60;99.90
9223;DHT22;7557;51.698;3.942;2023-11-19T15:14:40;13.50;99.90
9223;DHT22;7557;51.698;3.942;2023-11-19T15:17:08;13.40;99.90
9223;DHT22;7557;51.698;3.942;2023-11-19T15:19:36;13.40;99.90
9223;DHT22;7557;51.698;3.942;2023-11-19T15:22:04;13.40;99.90
9223;DHT22;7557;51.698;3.942;2023-11-19T15:24:32;13.30;99.90
9223;DHT22;7557;51.698;3.942;2023-11-19T15:26:59;13.30;99.90
9223;DHT22;7557;51.698;3.942;2023-11-19T15:29:29;13.30;99.90
9223;DHT22;7557;51.698;3.942;2023-11-19T15:32:01;13.30;99.90
9223;DHT22;7557;51.698;3.942;2023-11-19T15:34:29;13.30;99.90
9223;DHT22;7557;51.698;3.942;2023-11-19T15:36:56;13.30;99.90
9223;DHT22;7557;51.698;3.942;2023-11-19T15:39:24;13.20;99.90
9223;DHT22;7557;51.698;3.942;2023-11-19T15:41:53;13.20;99.90
9223;DHT22;7557;51.698;3.942;2023-11-19T15:44:21;13.20;99.90
9223;DHT22;7557;51.698;3.942;2023-11-19T15:46:51;13.20;99.90
9223;DHT22;7557;51.698;3.942;2023-11-19T15:49:21;13.20;99.90
9223;DHT22;7557;51.698;3.942;2023-11-19T15:51:48;13.20;99.90
9223;DHT22;7557;51.698;3.942;2023-11-19T15:54:16;13.10;99.90
9223;DHT22;7557;51.698;3.942;2023-11-19T15:56:43;13.10;99.90
9223;DHT22;7557;51.698;3.942;2023-11-19T15:59:11;13.10;99.90
9223;DHT22;7557;51.698;3.942;2023-11-19T16:01:39;13.10;99.90
9223;DHT22;7557;51.698;3.942;2023-11-19T16:04:06;13.10;99.90
9223;DHT22;7557;51.698;3.942;2023-11-19T16:06:36;13.10;99.90
9223;DHT22;7557;51.698;3.942;2023-11-19T16:09:04;13.10;99.90
9223;DHT22;7557;51.698;3.942;2023-11-19T16:11:32;13.10;99.90
9223;DHT22;7557;51.698;3.942;2023-11-19T16:14:00;13.10;99.90
9223;DHT22;7557;51.698;3.942;2023-11-19T16:16:28;13.00;99.90
9223;DHT22;7557;51.698;3.942;2023-11-19T16:18:55;13.10;99.90
9223;DHT22;7557;51.698;3.942;2023-11-19T16:21:24;13.10;99.90
9223;DHT22;7557;51.698;3.942;2023-11-19T16:23:54;13.00;99.90